Portada
METAR-TAF:

METAR-TAF

Aeropuertos :

Lárnaca, Chipre

Aeropuerto Internacional de Lárnaca

latitud: 34-53N, longitud: 033-38E, altitud: 2 m

Observación

El informe se hizo hace 18 minutos, a las 15:00 UTC
Viento 9 kt del noreste
Temperatura 18°C
Humedad 64%
Presión 1025 hPa
Visibilidad 10 km o más
sin nubes por debajo de 1500 m y sin presencia de cumulonimbus.

METAR: LCLK 111500Z 05009KT CAVOK 18/11 Q1025 NOSIG

Hora: 17:18 (15:18 UTC)

Pronóstico

El informe se hizo hace 3 horas y 48 minutos, a las 11:30 UTC
Pronóstico válido del 11 a las 12 UTC al 12 a las 12 UTC
Viento 12 kt del este-noreste
Visibilidad 10 km o más
Escasas nubes a una altura de 3000 ft
Evolucionando progresivamente
del 11 a las 15 UTC al 11 a las 18 UTC
Viento 9 kt del norte
Evolucionando progresivamente
del 12 a las 05 UTC al 12 a las 08 UTC
Viento 11 kt del este-noreste

TAF: LCLK 111130Z 1112/1212 06012KT 9999 FEW030 BECMG 1115/1118 36009KT BECMG 1205/1208 06011KT

Observaciones y pronósticos meteorológicos de más de 4000 aeropuertos (mensajes METAR y TAF).

Los puntos amarillos y rojos representan las estaciones disponibles.

Ponga el ratón en el punto deseado para ver el nombre de la estación.

Haga clic para ver las observaciones y los pronósticos meteorológicos.

Para cambiar el mapa : haga clic en los botones verdes con una cruz de color negro para hacer un zoom, en el botón verde con un guión para alejar o en las flechas verdes para mapas adyacentes.


METAR-TAF: